createdAt,value
2023-04-07T00:01:35.648Z,-0.78
2023-04-07T00:04:37.266Z,-0.78
2023-04-07T00:07:48.862Z,-0.76
2023-04-07T00:10:57.197Z,-0.75
2023-04-07T00:13:58.892Z,-0.75
2023-04-07T00:17:00.613Z,-0.76
2023-04-07T00:20:02.363Z,-0.76
2023-04-07T00:23:03.993Z,-0.76
2023-04-07T00:26:05.589Z,-0.77
2023-04-07T00:29:07.368Z,-0.78
2023-04-07T00:32:09.564Z,-0.77
2023-04-07T00:35:11.029Z,-0.77
2023-04-07T00:38:12.688Z,-0.78
2023-04-07T00:41:14.325Z,-0.78
2023-04-07T00:44:15.952Z,-0.77
2023-04-07T00:47:17.515Z,-0.77
2023-04-07T00:50:19.260Z,-0.77
2023-04-07T00:53:20.781Z,-0.77
2023-04-07T00:56:22.711Z,-0.77
2023-04-07T00:59:25.367Z,-0.78
2023-04-07T01:02:43.549Z,-0.78
2023-04-07T01:06:05.825Z,-0.80
2023-04-07T01:09:18.583Z,-0.81
2023-04-07T01:12:53.919Z,-0.82
2023-04-07T01:15:58.442Z,-0.84
2023-04-07T01:19:36.974Z,-0.84
2023-04-07T01:22:55.261Z,-0.85
2023-04-07T01:26:02.907Z,-0.86
2023-04-07T01:29:11.292Z,-0.87
2023-04-07T01:32:13.709Z,-0.88
2023-04-07T01:35:15.972Z,-0.89
2023-04-07T01:38:18.036Z,-0.88
2023-04-07T01:41:20.286Z,-0.88
2023-04-07T01:44:22.681Z,-0.88
2023-04-07T01:47:24.848Z,-0.88
2023-04-07T01:50:27.087Z,-0.87
2023-04-07T01:53:29.664Z,-0.87
2023-04-07T01:56:31.180Z,-0.86
2023-04-07T01:59:32.696Z,-0.85
2023-04-07T02:02:37.043Z,-0.84
2023-04-07T02:05:39.862Z,-0.83
2023-04-07T02:08:47.688Z,-0.83
2023-04-07T02:11:50.352Z,-0.81
2023-04-07T02:14:52.236Z,-0.79
2023-04-07T02:17:54.671Z,-0.76
2023-04-07T02:20:56.414Z,-0.73
2023-04-07T02:24:01.328Z,-0.71
2023-04-07T02:27:02.921Z,-0.69
2023-04-07T02:30:04.933Z,-0.68
2023-04-07T02:33:06.556Z,-0.67
2023-04-07T02:36:08.390Z,-0.66
2023-04-07T02:39:09.998Z,-0.65
2023-04-07T02:42:11.553Z,-0.64
2023-04-07T02:45:13.092Z,-0.63
2023-04-07T02:48:14.835Z,-0.63
2023-04-07T02:51:16.341Z,-0.63
2023-04-07T02:54:17.915Z,-0.62
2023-04-07T02:57:19.650Z,-0.62
2023-04-07T03:00:21.313Z,-0.62
2023-04-07T03:03:23.185Z,-0.62
2023-04-07T03:06:24.933Z,-0.62
2023-04-07T03:09:26.477Z,-0.61
2023-04-07T03:12:28.180Z,-0.60
2023-04-07T03:15:29.763Z,-0.59
2023-04-07T03:18:31.367Z,-0.58
2023-04-07T03:21:33.033Z,-0.57
2023-04-07T03:24:34.848Z,-0.57
2023-04-07T03:27:36.367Z,-0.56
2023-04-07T03:30:37.949Z,-0.56
2023-04-07T03:33:39.703Z,-0.56
2023-04-07T03:36:41.295Z,-0.56
2023-04-07T03:39:42.919Z,-0.56
2023-04-07T03:42:45.866Z,-0.55
2023-04-07T03:45:47.573Z,-0.55
2023-04-07T03:48:49.396Z,-0.54
2023-04-07T03:51:50.951Z,-0.54
2023-04-07T03:54:52.666Z,-0.55
2023-04-07T03:57:54.181Z,-0.58
2023-04-07T04:00:55.709Z,-0.62
2023-04-07T04:03:57.618Z,-0.65
2023-04-07T04:06:59.795Z,-0.69
2023-04-07T04:10:01.366Z,-0.80
2023-04-07T04:13:02.947Z,-0.87
2023-04-07T04:16:04.896Z,-0.88
2023-04-07T04:19:06.539Z,-0.88
2023-04-07T04:22:08.126Z,-0.86
2023-04-07T04:25:10.074Z,-0.90
2023-04-07T04:28:12.100Z,-1.01
2023-04-07T04:31:13.683Z,-1.04
2023-04-07T04:34:15.235Z,-1.03
2023-04-07T04:37:16.805Z,-1.01
2023-04-07T04:40:18.560Z,-0.81
2023-04-07T04:43:20.072Z,-0.53
2023-04-07T04:46:21.658Z,-0.58
2023-04-07T04:49:23.289Z,-0.69
2023-04-07T04:52:24.827Z,-0.73
2023-04-07T04:55:26.406Z,-0.70
2023-04-07T04:58:28.103Z,-0.70
2023-04-07T05:01:31.027Z,-0.69
2023-04-07T05:04:34.725Z,-0.70
2023-04-07T05:07:36.455Z,-0.75
2023-04-07T05:10:39.055Z,-0.80
2023-04-07T05:13:40.613Z,-0.82
2023-04-07T05:16:42.411Z,-0.80
2023-04-07T05:19:44.004Z,-0.56
2023-04-07T05:22:45.740Z,-0.31
2023-04-07T05:25:47.231Z,-0.42
2023-04-07T05:28:48.883Z,-0.53
2023-04-07T05:31:50.524Z,-0.54
2023-04-07T05:34:52.084Z,-0.45
2023-04-07T05:37:53.686Z,-0.36
2023-04-07T05:40:55.266Z,-0.30
2023-04-07T05:43:56.963Z,-0.25
2023-04-07T05:46:58.470Z,-0.21
2023-04-07T05:50:00.092Z,-0.17
2023-04-07T05:53:01.690Z,-0.13
2023-04-07T05:56:03.424Z,-0.11
2023-04-07T05:59:04.910Z,-0.08
2023-04-07T06:02:07.629Z,-0.05
2023-04-07T06:05:09.449Z,-0.03
2023-04-07T06:08:11.040Z,-0.02
2023-04-07T06:11:12.680Z,-0.02
2023-04-07T06:14:14.587Z,-0.02
2023-04-07T06:17:16.147Z,-0.02
2023-04-07T06:20:17.857Z,0.01
2023-04-07T06:23:19.613Z,0.02
2023-04-07T06:26:22.587Z,0.03
2023-04-07T06:29:24.175Z,0.05
2023-04-07T06:32:25.936Z,0.07
2023-04-07T06:35:27.602Z,0.08
2023-04-07T06:38:29.532Z,0.12
2023-04-07T06:41:31.537Z,0.15
2023-04-07T06:44:33.098Z,0.17
2023-04-07T06:47:34.747Z,0.17
2023-04-07T06:50:37.461Z,0.19
2023-04-07T06:53:38.980Z,0.22
2023-04-07T06:56:41.723Z,0.26
2023-04-07T06:59:43.224Z,0.28
2023-04-07T07:02:45.073Z,0.29
2023-04-07T07:05:46.924Z,0.31
2023-04-07T07:08:49.395Z,0.32
2023-04-07T07:11:51.076Z,0.33
2023-04-07T07:14:52.718Z,0.35
2023-04-07T07:17:54.537Z,0.34
2023-04-07T07:20:56.191Z,0.33
2023-04-07T07:23:57.848Z,0.31
2023-04-07T07:27:00.367Z,0.30
2023-04-07T07:30:01.954Z,0.30
2023-04-07T07:33:03.755Z,0.32
2023-04-07T07:36:05.813Z,0.35
2023-04-07T07:39:07.454Z,0.40
2023-04-07T07:42:09.012Z,0.45
2023-04-07T07:45:10.607Z,0.46
2023-04-07T07:48:12.262Z,0.47
2023-04-07T07:51:13.863Z,0.48
2023-04-07T07:54:15.458Z,0.47
2023-04-07T07:57:17.556Z,0.48
2023-04-07T08:00:19.324Z,0.48
2023-04-07T08:03:21.027Z,0.49
2023-04-07T08:06:22.594Z,0.51
2023-04-07T08:09:24.277Z,0.53
2023-04-07T08:12:25.779Z,0.56
2023-04-07T08:15:27.374Z,0.57
2023-04-07T08:18:29.335Z,0.60
2023-04-07T08:21:30.906Z,0.63
2023-04-07T08:24:32.554Z,0.67
2023-04-07T08:27:34.229Z,0.70
2023-04-07T08:30:35.882Z,0.73
2023-04-07T08:33:37.467Z,0.74
2023-04-07T08:36:39.494Z,0.72
2023-04-07T08:39:41.030Z,0.72
2023-04-07T08:42:48.679Z,0.71
2023-04-07T08:45:52.983Z,0.71
2023-04-07T08:48:56.968Z,0.71
2023-04-07T08:52:00.128Z,0.72
2023-04-07T08:55:02.012Z,0.74
2023-04-07T08:58:03.988Z,0.76
2023-04-07T09:01:09.718Z,0.80
2023-04-07T09:04:11.713Z,0.86
2023-04-07T09:07:13.266Z,0.91
2023-04-07T09:10:16.187Z,0.96
2023-04-07T09:13:17.742Z,1.00
2023-04-07T09:16:19.513Z,1.02
2023-04-07T09:19:21.276Z,1.03
2023-04-07T09:22:35.257Z,1.02
2023-04-07T09:25:36.754Z,1.04
2023-04-07T09:28:41.460Z,1.11
2023-04-07T09:31:46.470Z,1.18
2023-04-07T09:34:58.923Z,1.26
2023-04-07T09:38:08.787Z,1.38
2023-04-07T09:41:16.440Z,1.48
2023-04-07T09:44:22.351Z,1.50
2023-04-07T09:47:28.208Z,1.56
2023-04-07T09:50:38.705Z,1.56
2023-04-07T09:53:48.436Z,1.63
2023-04-07T09:56:51.112Z,1.67
2023-04-07T09:59:53.508Z,1.74
2023-04-07T10:02:55.378Z,1.71
2023-04-07T10:05:57.348Z,1.73
2023-04-07T10:08:59.043Z,1.77
2023-04-07T10:12:00.518Z,1.76
2023-04-07T10:15:02.474Z,1.77
2023-04-07T10:18:05.476Z,1.81
2023-04-07T10:21:07.668Z,1.89
2023-04-07T10:24:22.457Z,1.91
2023-04-07T10:27:56.979Z,1.93
2023-04-07T10:30:58.780Z,1.99
2023-04-07T10:34:00.435Z,1.98
2023-04-07T10:37:13.158Z,1.93
2023-04-07T10:40:20.901Z,1.86
2023-04-07T10:43:39.889Z,1.83
2023-04-07T10:46:47.615Z,1.79
2023-04-07T10:50:15.580Z,1.79
2023-04-07T10:53:17.200Z,1.85
2023-04-07T10:56:18.735Z,1.89
2023-04-07T10:59:20.339Z,1.90
2023-04-07T11:02:24.958Z,1.94
2023-04-07T11:05:26.696Z,1.97
2023-04-07T11:08:34.928Z,1.98
2023-04-07T11:11:39.044Z,1.97
2023-04-07T11:14:40.656Z,1.94
2023-04-07T11:17:42.260Z,1.95
2023-04-07T11:20:54.512Z,1.96
2023-04-07T11:23:56.147Z,1.96
2023-04-07T11:26:57.677Z,1.99
2023-04-07T11:29:59.263Z,2.03
2023-04-07T11:33:00.993Z,2.06
2023-04-07T11:36:03.168Z,2.05
2023-04-07T11:39:05.617Z,2.06
2023-04-07T11:42:07.336Z,2.06
2023-04-07T11:45:18.457Z,2.10
2023-04-07T11:48:29.995Z,2.17
2023-04-07T11:51:31.539Z,2.21
2023-04-07T11:54:43.181Z,2.22
2023-04-07T11:57:44.858Z,2.15
2023-04-07T12:00:56.386Z,2.13
2023-04-07T12:04:03.167Z,2.08
2023-04-07T12:07:11.954Z,2.07
2023-04-07T12:10:20.681Z,2.05
2023-04-07T12:13:22.225Z,2.05
2023-04-07T12:16:24.566Z,2.08
2023-04-07T12:19:27.298Z,2.11
2023-04-07T12:22:28.853Z,2.17
2023-04-07T12:25:30.373Z,2.24
2023-04-07T12:28:31.990Z,2.30
2023-04-07T12:31:34.078Z,2.31
2023-04-07T12:34:36.008Z,2.35
2023-04-07T12:37:37.490Z,2.36
2023-04-07T12:40:39.072Z,2.34
2023-04-07T12:43:40.712Z,2.32
2023-04-07T12:46:42.283Z,2.35
2023-04-07T12:49:43.891Z,2.38
2023-04-07T12:52:45.516Z,2.39
2023-04-07T12:55:50.000Z,2.38
2023-04-07T12:58:52.167Z,2.36
2023-04-07T13:01:53.823Z,2.37
2023-04-07T13:04:55.786Z,2.36
2023-04-07T13:07:57.391Z,2.34
2023-04-07T13:10:58.891Z,2.35
2023-04-07T13:14:01.471Z,2.34
2023-04-07T13:17:03.374Z,2.36
2023-04-07T13:20:05.810Z,2.36
2023-04-07T13:23:09.644Z,2.34
2023-04-07T13:26:12.024Z,2.36
2023-04-07T13:29:13.628Z,2.38
2023-04-07T13:32:15.123Z,2.38
2023-04-07T13:35:17.058Z,2.37
2023-04-07T13:38:18.581Z,2.36
2023-04-07T13:41:20.150Z,2.39
2023-04-07T13:44:22.373Z,2.40
2023-04-07T13:47:23.918Z,2.42
2023-04-07T13:50:25.525Z,2.43
2023-04-07T13:53:27.056Z,2.42
2023-04-07T13:56:28.538Z,2.39
2023-04-07T13:59:30.088Z,2.39
2023-04-07T14:02:31.799Z,2.35
2023-04-07T14:05:33.392Z,2.31
2023-04-07T14:08:34.936Z,2.26
2023-04-07T14:11:36.564Z,2.23
2023-04-07T14:14:38.078Z,2.21
2023-04-07T14:17:39.667Z,2.18
2023-04-07T14:20:41.184Z,2.15
2023-04-07T14:23:42.722Z,2.12
2023-04-07T14:26:44.882Z,2.12
2023-04-07T14:29:47.923Z,2.11
2023-04-07T14:32:49.516Z,2.09
2023-04-07T14:35:51.240Z,2.07
2023-04-07T14:38:52.898Z,2.05
2023-04-07T14:41:54.490Z,2.01
2023-04-07T14:44:56.200Z,2.00
2023-04-07T14:47:57.875Z,1.99
2023-04-07T14:51:09.341Z,1.97
2023-04-07T14:54:11.727Z,1.98
2023-04-07T14:57:13.260Z,2.01
2023-04-07T15:00:15.143Z,2.03
2023-04-07T15:03:16.768Z,2.00
2023-04-07T15:06:19.528Z,1.98
2023-04-07T15:09:21.197Z,1.98
2023-04-07T15:12:22.889Z,1.98
2023-04-07T15:15:24.443Z,1.99
2023-04-07T15:18:26.112Z,1.99
2023-04-07T15:21:27.655Z,1.99
2023-04-07T15:24:29.309Z,1.98
2023-04-07T15:27:30.999Z,1.99
2023-04-07T15:30:32.855Z,1.98
2023-04-07T15:33:39.801Z,1.94
2023-04-07T15:36:41.327Z,1.92
2023-04-07T15:39:42.981Z,1.82
2023-04-07T15:42:44.500Z,1.71
2023-04-07T15:45:46.215Z,1.68
2023-04-07T15:48:47.963Z,1.62
2023-04-07T15:51:49.392Z,1.55
2023-04-07T15:54:51.173Z,1.54
2023-04-07T15:57:52.604Z,1.49
2023-04-07T16:00:54.230Z,1.46
2023-04-07T16:03:55.851Z,1.47
2023-04-07T16:06:57.812Z,1.45
2023-04-07T16:09:59.222Z,1.44
2023-04-07T16:13:00.864Z,1.44
2023-04-07T16:16:02.581Z,1.46
2023-04-07T16:19:04.109Z,1.48
2023-04-07T16:22:05.645Z,1.49
2023-04-07T16:25:08.039Z,1.48
2023-04-07T16:28:09.981Z,1.45
2023-04-07T16:31:11.500Z,1.44
2023-04-07T16:34:13.075Z,1.44
2023-04-07T16:37:14.714Z,1.42
2023-04-07T16:40:16.297Z,1.40
2023-04-07T16:43:17.919Z,1.38
2023-04-07T16:46:19.606Z,1.41
2023-04-07T16:49:21.203Z,1.35
2023-04-07T16:52:23.193Z,1.32
2023-04-07T16:55:24.965Z,1.29
2023-04-07T16:58:26.494Z,1.24
2023-04-07T17:01:28.557Z,1.18
2023-04-07T17:04:30.340Z,1.12
2023-04-07T17:07:32.118Z,1.10
2023-04-07T17:10:33.822Z,1.10
2023-04-07T17:13:35.629Z,1.10
2023-04-07T17:16:37.145Z,1.12
2023-04-07T17:19:38.708Z,1.10
2023-04-07T17:22:40.361Z,1.12
2023-04-07T17:25:41.991Z,1.09
2023-04-07T17:28:45.728Z,1.11
2023-04-07T17:31:49.230Z,1.12
2023-04-07T17:34:50.741Z,1.08
2023-04-07T17:37:52.287Z,1.11
2023-04-07T17:41:00.419Z,1.13
2023-04-07T17:44:02.376Z,1.11
2023-04-07T17:47:04.023Z,1.14
2023-04-07T17:50:06.232Z,1.14
2023-04-07T17:53:08.700Z,1.12
2023-04-07T17:56:10.390Z,1.13
2023-04-07T17:59:11.949Z,1.15
2023-04-07T18:02:13.687Z,1.15
2023-04-07T18:05:15.506Z,1.14
2023-04-07T18:08:17.112Z,1.14
2023-04-07T18:11:18.640Z,1.14
2023-04-07T18:14:20.270Z,1.12
2023-04-07T18:17:22.038Z,1.08
2023-04-07T18:20:26.167Z,1.05
2023-04-07T18:23:29.026Z,1.12
2023-04-07T18:26:30.831Z,1.16
2023-04-07T18:29:32.517Z,1.20
2023-04-07T18:32:34.070Z,1.23
2023-04-07T18:35:35.894Z,1.23
2023-04-07T18:38:38.062Z,1.25
2023-04-07T18:41:42.551Z,1.27
2023-04-07T18:44:44.088Z,1.29
2023-04-07T18:47:45.738Z,1.29
2023-04-07T18:50:53.891Z,1.27
2023-04-07T18:53:55.417Z,1.25
2023-04-07T18:56:57.030Z,1.26
2023-04-07T18:59:58.771Z,1.27
2023-04-07T19:03:00.701Z,1.28
2023-04-07T19:06:02.934Z,1.28
2023-04-07T19:09:04.912Z,1.26
2023-04-07T19:12:06.592Z,1.27
2023-04-07T19:15:08.775Z,1.26
2023-04-07T19:18:10.548Z,1.24
2023-04-07T19:21:12.502Z,1.22
2023-04-07T19:24:13.985Z,1.19
2023-04-07T19:27:15.837Z,1.16
2023-04-07T19:30:17.438Z,1.12
2023-04-07T19:33:19.267Z,1.09
2023-04-07T19:36:20.860Z,1.04
2023-04-07T19:39:22.768Z,1.01
2023-04-07T19:42:24.175Z,0.97
2023-04-07T19:45:26.307Z,0.91
2023-04-07T19:48:27.890Z,0.90
2023-04-07T19:51:29.440Z,0.87
2023-04-07T19:54:31.161Z,0.82
2023-04-07T19:57:32.829Z,0.82
2023-04-07T20:00:35.375Z,0.86
2023-04-07T20:03:36.989Z,0.86
2023-04-07T20:06:38.668Z,0.80
2023-04-07T20:09:40.201Z,0.72
2023-04-07T20:12:41.746Z,0.70
2023-04-07T20:15:43.276Z,0.71
2023-04-07T20:18:44.935Z,0.66
2023-04-07T20:21:46.503Z,0.57
2023-04-07T20:24:48.078Z,0.60
2023-04-07T20:27:49.669Z,0.69
2023-04-07T20:30:51.459Z,0.77
2023-04-07T20:33:53.046Z,0.83
2023-04-07T20:36:54.824Z,0.63
2023-04-07T20:39:56.360Z,0.37
2023-04-07T20:42:58.019Z,0.29
2023-04-07T20:45:59.793Z,0.20
2023-04-07T20:49:01.480Z,0.25
2023-04-07T20:52:03.600Z,0.39
2023-04-07T20:55:06.190Z,0.33
2023-04-07T20:58:07.686Z,0.29
2023-04-07T21:01:10.996Z,0.36
2023-04-07T21:04:12.788Z,0.35
2023-04-07T21:07:14.612Z,0.35
2023-04-07T21:10:16.244Z,0.37
2023-04-07T21:13:18.732Z,0.40
2023-04-07T21:16:20.386Z,0.44
2023-04-07T21:19:21.910Z,0.49
2023-04-07T21:22:23.590Z,0.52
2023-04-07T21:25:25.076Z,0.55
2023-04-07T21:28:26.688Z,0.54
2023-04-07T21:31:28.466Z,0.47
2023-04-07T21:34:30.079Z,0.35
2023-04-07T21:37:31.705Z,0.34
2023-04-07T21:40:33.366Z,0.46
2023-04-07T21:43:34.923Z,0.59
2023-04-07T21:46:36.618Z,0.39
2023-04-07T21:49:38.260Z,0.14
2023-04-07T21:52:39.904Z,0.08
2023-04-07T21:55:41.521Z,0.01
2023-04-07T21:58:43.042Z,-0.04
2023-04-07T22:01:45.147Z,-0.01
2023-04-07T22:04:46.966Z,0.08
2023-04-07T22:07:48.665Z,0.15
2023-04-07T22:10:50.206Z,0.21
2023-04-07T22:13:51.848Z,0.26
2023-04-07T22:16:53.414Z,0.25
2023-04-07T22:19:55.027Z,0.24
2023-04-07T22:22:56.537Z,0.20
2023-04-07T22:25:58.099Z,0.17
2023-04-07T22:28:59.924Z,0.13
2023-04-07T22:32:01.400Z,0.09
2023-04-07T22:35:03.188Z,0.07
2023-04-07T22:38:04.844Z,0.05
2023-04-07T22:41:06.473Z,0.01
2023-04-07T22:44:08.207Z,-0.04
2023-04-07T22:47:09.663Z,-0.09
2023-04-07T22:50:11.552Z,-0.15
2023-04-07T22:53:13.257Z,-0.22
2023-04-07T22:56:14.888Z,-0.28
2023-04-07T22:59:16.534Z,-0.33
2023-04-07T23:02:18.199Z,-0.39
2023-04-07T23:05:19.802Z,-0.44
2023-04-07T23:08:21.843Z,-0.49
2023-04-07T23:11:23.786Z,-0.54
2023-04-07T23:14:25.437Z,-0.58
2023-04-07T23:17:27.056Z,-0.60
2023-04-07T23:20:31.906Z,-0.60
2023-04-07T23:23:35.214Z,-0.62
2023-04-07T23:26:36.856Z,-0.63
2023-04-07T23:29:38.436Z,-0.64
2023-04-07T23:32:40.173Z,-0.67
2023-04-07T23:35:41.860Z,-0.71
2023-04-07T23:38:43.414Z,-0.74
2023-04-07T23:41:45.103Z,-0.76
2023-04-07T23:44:46.696Z,-0.79
2023-04-07T23:47:48.423Z,-0.83
2023-04-07T23:50:50.036Z,-0.87
2023-04-07T23:53:51.672Z,-0.91
2023-04-07T23:56:53.265Z,-0.94
2023-04-07T23:59:54.858Z,-0.97
